Time;durP1;ratioP1;P1;durP2;ratioP2;P2;SDS_P1;SDS_P2;PMS_P1;PMS_P2;Temp;Humidity;BMP_temperature;BMP_pressure;BME280_temperature;BME280_humidity;BME280_pressure;Samples;Min_cycle;Max_cycle;Signal;HPM_P1;HPM_P2
2021/12/21 08:57:36;;;;;;;14.02;7.43;;;;;;;;;;6204681;22;20488;-88
2021/12/21 09:00:05;;;;;;;19.15;10.98;;;;;;;;;;6221109;23;20043;-86
2021/12/21 09:02:35;;;;;;;16.55;10.23;;;;;;;;;;6247739;23;20378;-88
2021/12/21 09:05:00;;;;;;;18.17;11.40;;;;;;;;;;6248111;23;20031;-82
2021/12/21 09:07:25;;;;;;;13.95;9.20;;;;;;;;;;6247940;23;20407;-88
2021/12/21 10:45:44;;;;;;;11.57;7.78;;;;;;;;;;6244277;23;20388;-85
2021/12/21 10:48:19;;;;;;;11.05;7.45;;;;;;;;;;6246872;23;20015;-88
2021/12/21 10:50:48;;;;;;;12.05;7.18;;;;;;;;;;6247009;23;20374;-81
2021/12/21 10:53:23;;;;;;;9.47;6.93;;;;;;;;;;6248367;23;20008;-90
2021/12/21 10:56:08;;;;;;;12.00;7.30;;;;;;;;;;6247246;23;20000;-88
2021/12/21 10:58:39;;;;;;;12.63;7.80;;;;;;;;;;6246834;23;20079;-87
2021/12/21 11:01:08;;;;;;;12.10;7.45;;;;;;;;;;6246352;23;20431;-85
2021/12/21 11:03:38;;;;;;;9.48;6.50;;;;;;;;;;6246718;23;20011;-86
2021/12/21 11:06:25;;;;;;;12.13;7.63;;;;;;;;;;6246375;23;20459;-85
2021/12/21 11:08:54;;;;;;;10.52;6.80;;;;;;;;;;6246472;23;20004;-86
2021/12/21 11:11:34;;;;;;;10.40;7.07;;;;;;;;;;6246247;23;20003;-81
2021/12/21 11:14:13;;;;;;;11.73;6.88;;;;;;;;;;6246630;23;20008;-82
2021/12/21 11:16:44;;;;;;;9.80;6.63;;;;;;;;;;6246399;23;20050;-84
2021/12/21 11:19:12;;;;;;;11.93;7.38;;;;;;;;;;6246517;23;20323;-81
2021/12/21 11:21:39;;;;;;;10.38;7.32;;;;;;;;;;6246968;23;20003;-83
2021/12/21 11:24:07;;;;;;;11.57;6.72;;;;;;;;;;6248511;23;20450;-85
2021/12/21 11:26:34;;;;;;;9.05;6.55;;;;;;;;;;6222132;23;20000;-85
2021/12/21 11:29:03;;;;;;;8.20;6.25;;;;;;;;;;6248562;23;20364;-82
2021/12/21 11:31:29;;;;;;;17.15;8.35;;;;;;;;;;6248459;23;20012;-82
2021/12/21 11:33:58;;;;;;;9.93;6.93;;;;;;;;;;6222191;23;20058;-80
2021/12/21 11:39:09;;;;;;;11.73;7.70;;;;;;;;;;6248869;23;20011;-92
2021/12/21 11:41:37;;;;;;;12.52;7.10;;;;;;;;;;6221424;23;20008;-86
2021/12/21 11:44:12;;;;;;;9.25;6.82;;;;;;;;;;6221506;23;20004;-86
2021/12/21 11:46:54;;;;;;;12.07;7.35;;;;;;;;;;6249227;23;20464;-83
2021/12/21 11:49:29;;;;;;;13.38;7.80;;;;;;;;;;6248350;23;20075;-81
2021/12/21 11:52:15;;;;;;;10.82;7.53;;;;;;;;;;6250108;23;20008;-82
2021/12/21 11:54:48;;;;;;;12.50;7.97;;;;;;;;;;6249211;23;20093;-85
2021/12/21 11:57:14;;;;;;;11.57;7.22;;;;;;;;;;6248131;23;20075;-81
2021/12/21 11:59:40;;;;;;;13.95;8.02;;;;;;;;;;6248847;23;20071;-82
2021/12/21 12:02:06;;;;;;;13.57;7.78;;;;;;;;;;6249629;23;20398;-87
2021/12/21 12:04:33;;;;;;;11.15;7.38;;;;;;;;;;6248671;23;20059;-83
2021/12/21 12:06:59;;;;;;;13.25;7.88;;;;;;;;;;6248281;23;20004;-85
2021/12/21 12:09:31;;;;;;;13.13;7.07;;;;;;;;;;6247884;23;20027;-82
2021/12/21 12:12:11;;;;;;;10.82;6.95;;;;;;;;;;6248699;23;20011;-85
2021/12/21 12:14:38;;;;;;;12.27;7.10;;;;;;;;;;6250030;23;20378;-87
2021/12/21 12:17:10;;;;;;;10.63;7.25;;;;;;;;;;6248674;23;20079;-87
2021/12/21 12:19:43;;;;;;;11.80;8.05;;;;;;;;;;6248159;23;20004;-87
2021/12/21 12:22:15;;;;;;;13.43;8.07;;;;;;;;;;6247986;23;20016;-85
2021/12/21 12:24:46;;;;;;;14.32;7.80;;;;;;;;;;6248021;23;20007;-86
2021/12/21 12:27:17;;;;;;;12.35;8.95;;;;;;;;;;6247664;23;20438;-86
2021/12/21 12:29:51;;;;;;;11.35;8.90;;;;;;;;;;6247739;23;20008;-81
2021/12/21 12:32:30;;;;;;;10.27;7.43;;;;;;;;;;6247996;23;20004;-80
2021/12/21 12:35:17;;;;;;;13.27;7.63;;;;;;;;;;6248600;23;20004;-80
2021/12/21 12:37:53;;;;;;;13.30;8.60;;;;;;;;;;6248178;23;20007;-85
2021/12/21 12:40:23;;;;;;;11.50;7.55;;;;;;;;;;6233565;22;20401;-86
2021/12/21 16:18:14;;;;;;;14.45;8.18;;;;;;;;;;6199305;23;20359;-79
2021/12/21 16:20:40;;;;;;;13.45;7.15;;;;;;;;;;6187331;23;20013;-78
2021/12/21 16:23:06;;;;;;;17.83;7.43;;;;;;;;;;6187182;23;20013;-78
2021/12/21 16:25:33;;;;;;;14.93;7.95;;;;;;;;;;6187443;23;20309;-79
2021/12/21 16:27:59;;;;;;;13.25;7.85;;;;;;;;;;6187557;23;20005;-79
2021/12/21 16:30:33;;;;;;;13.90;7.15;;;;;;;;;;6187568;23;20011;-80
2021/12/21 16:32:59;;;;;;;10.38;5.70;;;;;;;;;;6210722;23;20033;-79
2021/12/21 16:35:25;;;;;;;9.52;5.82;;;;;;;;;;6187178;23;20380;-80
2021/12/21 16:37:51;;;;;;;9.85;5.65;;;;;;;;;;6187371;23;20001;-80
2021/12/21 16:40:16;;;;;;;9.82;6.90;;;;;;;;;;6187387;23;20001;-82
2021/12/21 16:42:42;;;;;;;10.80;7.75;;;;;;;;;;6187691;23;20443;-80
2021/12/21 16:45:08;;;;;;;11.15;7.28;;;;;;;;;;6187012;23;20520;-83
2021/12/21 16:47:33;;;;;;;12.65;8.15;;;;;;;;;;6187477;23;20083;-78
2021/12/21 16:49:59;;;;;;;11.27;7.80;;;;;;;;;;6187346;23;20009;-79
2021/12/21 16:52:24;;;;;;;14.85;8.02;;;;;;;;;;6187093;23;20005;-82
2021/12/21 16:54:50;;;;;;;12.80;7.35;;;;;;;;;;6187139;23;20001;-80
2021/12/21 16:57:15;;;;;;;13.65;7.10;;;;;;;;;;6187433;23;20005;-81
2021/12/21 16:59:45;;;;;;;13.80;7.95;;;;;;;;;;6187403;23;20005;-81
2021/12/21 17:02:11;;;;;;;;;;;;;;;;;;6187516;23;20009;-83
2021/12/21 17:04:37;;;;;;;9.88;5.97;;;;;;;;;;6186917;23;19988;-83
2021/12/21 17:07:02;;;;;;;12.45;7.00;;;;;;;;;;6186834;23;20007;-81
2021/12/21 17:09:28;;;;;;;10.13;6.45;;;;;;;;;;6210436;23;20009;-81
2021/12/21 17:11:53;;;;;;;11.05;7.38;;;;;;;;;;6185303;23;20001;-80
2021/12/21 17:14:19;;;;;;;12.15;6.88;;;;;;;;;;6186892;23;20425;-80
2021/12/21 17:16:44;;;;;;;10.82;6.13;;;;;;;;;;6211149;23;20016;-83
2021/12/21 17:19:10;;;;;;;15.98;7.18;;;;;;;;;;6186820;23;20036;-81
2021/12/21 17:21:36;;;;;;;12.55;7.28;;;;;;;;;;6186938;23;20067;-81
2021/12/21 17:24:02;;;;;;;11.50;7.18;;;;;;;;;;6186630;23;20127;-80
2021/12/21 17:26:28;;;;;;;13.60;8.77;;;;;;;;;;6187166;23;20000;-80
2021/12/21 17:28:54;;;;;;;14.05;8.98;;;;;;;;;;6187045;23;20001;-80
2021/12/21 17:31:19;;;;;;;11.02;7.03;;;;;;;;;;6186921;23;20009;-80
2021/12/21 17:33:45;;;;;;;10.23;5.40;;;;;;;;;;6186769;23;20001;-81
2021/12/21 17:36:17;;;;;;;7.85;5.65;;;;;;;;;;6187168;23;20043;-80
2021/12/21 17:38:44;;;;;;;9.10;5.90;;;;;;;;;;6186954;23;20001;-80
2021/12/21 17:41:11;;;;;;;10.45;6.05;;;;;;;;;;6186747;23;20008;-81
2021/12/21 17:43:36;;;;;;;8.98;6.30;;;;;;;;;;6186409;23;20055;-79
2021/12/21 17:46:02;;;;;;;10.80;6.85;;;;;;;;;;6186731;23;20005;-80
2021/12/21 17:48:27;;;;;;;9.85;6.47;;;;;;;;;;6186587;23;20005;-81
2021/12/21 17:50:53;;;;;;;11.95;7.97;;;;;;;;;;6186601;23;20011;-80
2021/12/21 17:53:18;;;;;;;14.75;7.55;;;;;;;;;;6186763;23;20001;-81
2021/12/21 17:55:44;;;;;;;10.40;6.45;;;;;;;;;;6186525;23;20009;-80
2021/12/21 17:58:09;;;;;;;8.63;6.55;;;;;;;;;;6186350;23;20325;-80
2021/12/21 18:00:37;;;;;;;10.50;7.00;;;;;;;;;;6186649;23;20302;-83
2021/12/21 18:03:03;;;;;;;15.77;11.00;;;;;;;;;;6186515;23;20005;-84
2021/12/21 18:05:28;;;;;;;11.70;7.68;;;;;;;;;;6186329;23;20012;-83
2021/12/21 18:07:54;;;;;;;10.02;7.72;;;;;;;;;;6186783;23;20076;-83
2021/12/21 18:10:19;;;;;;;12.40;8.13;;;;;;;;;;6185824;23;20001;-82
2021/12/21 18:12:45;;;;;;;10.88;7.25;;;;;;;;;;6185943;23;20013;-83
2021/12/21 18:15:12;;;;;;;10.75;7.13;;;;;;;;;;6186274;23;20001;-83
2021/12/21 18:17:38;;;;;;;13.80;10.68;;;;;;;;;;6209505;23;20005;-84
2021/12/21 18:20:05;;;;;;;9.43;7.57;;;;;;;;;;6186157;23;20031;-83
2021/12/21 18:22:30;;;;;;;9.65;7.30;;;;;;;;;;6186289;23;20005;-81
2021/12/21 18:24:56;;;;;;;14.50;7.55;;;;;;;;;;6185918;23;20081;-82
2021/12/21 18:27:22;;;;;;;11.65;7.80;;;;;;;;;;6186196;23;20001;-81
2021/12/21 18:29:47;;;;;;;12.45;8.20;;;;;;;;;;6186304;23;20373;-79
2021/12/21 18:32:13;;;;;;;16.42;9.52;;;;;;;;;;6185744;23;20417;-80
2021/12/21 18:34:39;;;;;;;12.05;9.00;;;;;;;;;;6185954;23;20005;-83
2021/12/21 18:37:06;;;;;;;13.80;8.98;;;;;;;;;;6186015;23;20009;-83
2021/12/21 18:39:33;;;;;;;14.13;9.23;;;;;;;;;;6186133;23;20031;-82
2021/12/21 18:41:59;;;;;;;13.70;8.75;;;;;;;;;;6186046;23;20001;-80
2021/12/21 18:44:25;;;;;;;15.85;12.35;;;;;;;;;;6186080;23;20054;-81
2021/12/21 18:46:55;;;;;;;22.63;9.95;;;;;;;;;;6185926;23;20004;-82
2021/12/21 18:49:21;;;;;;;14.80;8.45;;;;;;;;;;6209913;23;20005;-86
2021/12/21 18:51:47;;;;;;;14.38;8.40;;;;;;;;;;6185787;23;20333;-82
2021/12/21 18:54:14;;;;;;;15.45;9.38;;;;;;;;;;6185981;23;20001;-81
2021/12/21 18:56:41;;;;;;;18.90;9.48;;;;;;;;;;6185938;23;20005;-82
2021/12/21 18:59:07;;;;;;;13.23;8.90;;;;;;;;;;6185918;23;19997;-81
2021/12/21 19:01:37;;;;;;;13.70;8.63;;;;;;;;;;6185639;23;20475;-81
2021/12/21 19:04:04;;;;;;;11.95;8.63;;;;;;;;;;6185854;23;20051;-80
2021/12/21 19:06:29;;;;;;;13.35;9.07;;;;;;;;;;6185976;23;20005;-80
2021/12/21 19:08:55;;;;;;;13.27;9.10;;;;;;;;;;6185617;23;20446;-80
2021/12/21 19:11:22;;;;;;;16.73;8.98;;;;;;;;;;6186417;23;20328;-85
2021/12/21 19:13:47;;;;;;;11.63;8.20;;;;;;;;;;6185870;23;20009;-82
2021/12/21 19:16:13;;;;;;;15.10;9.38;;;;;;;;;;6186242;23;20309;-80
2021/12/21 19:18:38;;;;;;;13.05;8.50;;;;;;;;;;6185493;23;20428;-80
2021/12/21 19:21:04;;;;;;;17.05;8.85;;;;;;;;;;6185734;23;20332;-81
2021/12/21 19:23:30;;;;;;;15.95;9.68;;;;;;;;;;6186378;23;20063;-84
2021/12/21 19:25:55;;;;;;;16.63;9.63;;;;;;;;;;6210105;23;20029;-87
2021/12/21 19:28:24;;;;;;;14.52;9.75;;;;;;;;;;6209912;23;20009;-87
2021/12/21 19:30:50;;;;;;;16.13;10.23;;;;;;;;;;6185991;23;20005;-87
2021/12/21 19:33:16;;;;;;;15.85;9.55;;;;;;;;;;6186145;23;20005;-91
2021/12/21 19:35:45;;;;;;;31.15;15.88;;;;;;;;;;6186175;23;20028;-87
2021/12/21 19:38:11;;;;;;;71.68;32.85;;;;;;;;;;6210063;23;20163;-87
2021/12/21 19:40:37;;;;;;;35.08;17.25;;;;;;;;;;6210296;23;20433;-90
2021/12/21 19:43:03;;;;;;;18.90;11.15;;;;;;;;;;6210819;23;20044;-87
2021/12/21 19:45:30;;;;;;;19.05;11.07;;;;;;;;;;6211553;23;20143;-88
2021/12/21 19:47:56;;;;;;;15.45;11.05;;;;;;;;;;6186391;23;20032;-87
2021/12/21 19:50:23;;;;;;;23.13;12.98;;;;;;;;;;6187975;23;20005;-89
2021/12/21 19:52:50;;;;;;;16.88;10.75;;;;;;;;;;6211390;23;20316;-88
2021/12/21 19:55:16;;;;;;;17.45;11.88;;;;;;;;;;6211273;23;20009;-88
2021/12/21 19:57:41;;;;;;;14.65;10.02;;;;;;;;;;6211528;23;20032;-87
2021/12/21 20:00:10;;;;;;;13.80;9.23;;;;;;;;;;6211468;23;20000;-89
2021/12/21 20:02:36;;;;;;;14.60;9.68;;;;;;;;;;6211625;23;20005;-86
2021/12/21 20:05:03;;;;;;;13.18;8.98;;;;;;;;;;6211741;23;20056;-88
2021/12/21 20:07:29;;;;;;;13.63;9.20;;;;;;;;;;6211819;23;20017;-89
2021/12/21 20:09:54;;;;;;;13.32;8.93;;;;;;;;;;6211761;23;20005;-88
2021/12/21 20:12:29;;;;;;;15.55;9.02;;;;;;;;;;6187957;23;20009;-89
2021/12/21 20:14:56;;;;;;;16.55;10.15;;;;;;;;;;6186682;23;20071;-89
2021/12/21 20:17:22;;;;;;;14.52;9.50;;;;;;;;;;6211518;23;20015;-88
2021/12/21 20:19:49;;;;;;;14.15;9.52;;;;;;;;;;6211214;23;20016;-90
2021/12/21 20:22:16;;;;;;;12.25;9.27;;;;;;;;;;6187792;23;20009;-89
2021/12/21 20:24:43;;;;;;;13.77;9.85;;;;;;;;;;6186325;23;20084;-87
2021/12/21 20:27:09;;;;;;;15.65;10.43;;;;;;;;;;6211557;23;20009;-88
2021/12/21 20:29:34;;;;;;;15.77;9.75;;;;;;;;;;6187757;23;20005;-89
2021/12/21 20:32:00;;;;;;;13.13;9.73;;;;;;;;;;6188339;23;20005;-87
2021/12/21 20:34:31;;;;;;;14.63;8.88;;;;;;;;;;6211581;23;20008;-86
2021/12/21 20:36:59;;;;;;;14.20;8.88;;;;;;;;;;6211801;23;20409;-89
2021/12/21 20:39:24;;;;;;;11.20;7.78;;;;;;;;;;6211509;23;20387;-90
2021/12/21 20:41:50;;;;;;;11.52;8.45;;;;;;;;;;6187531;23;20047;-88
2021/12/21 20:44:15;;;;;;;14.23;8.50;;;;;;;;;;6187881;23;20005;-89
2021/12/21 20:46:40;;;;;;;17.17;9.90;;;;;;;;;;6211199;23;20005;-88
2021/12/21 20:49:06;;;;;;;12.52;8.48;;;;;;;;;;6211148;23;20001;-88
2021/12/21 20:51:32;;;;;;;14.90;9.23;;;;;;;;;;6186178;23;20005;-89
2021/12/21 20:53:57;;;;;;;13.05;9.20;;;;;;;;;;6210668;23;20009;-87
2021/12/21 20:56:23;;;;;;;17.88;11.13;;;;;;;;;;6211274;23;20009;-92
2021/12/21 20:58:49;;;;;;;17.80;10.77;;;;;;;;;;6186115;23;20012;-88
2021/12/21 21:01:16;;;;;;;20.60;10.77;;;;;;;;;;6185766;23;20005;-87
2021/12/21 21:03:41;;;;;;;21.35;11.85;;;;;;;;;;6186242;23;20001;-87
2021/12/21 21:06:09;;;;;;;17.67;11.15;;;;;;;;;;6211237;23;20477;-89
2021/12/21 21:08:35;;;;;;;21.38;11.20;;;;;;;;;;6187880;23;20361;-89
2021/12/21 21:11:02;;;;;;;21.92;14.40;;;;;;;;;;6187567;23;20040;-87
2021/12/21 21:13:28;;;;;;;24.80;12.55;;;;;;;;;;6210670;23;20013;-87
2021/12/21 21:15:53;;;;;;;21.33;13.95;;;;;;;;;;6210836;23;20044;-88
2021/12/21 21:18:21;;;;;;;20.10;12.77;;;;;;;;;;6212059;23;20009;-87
2021/12/21 21:20:47;;;;;;;23.13;12.88;;;;;;;;;;6212898;23;20016;-88
2021/12/21 21:23:15;;;;;;;33.90;21.65;;;;;;;;;;6189235;23;20009;-87
2021/12/21 21:25:41;;;;;;;29.25;19.10;;;;;;;;;;6217616;23;20083;-87
2021/12/21 21:28:06;;;;;;;37.72;23.75;;;;;;;;;;6193805;23;20005;-86
2021/12/21 21:30:32;;;;;;;30.67;19.73;;;;;;;;;;6221041;23;20009;-88
2021/12/21 21:32:58;;;;;;;31.27;20.23;;;;;;;;;;6197827;23;20008;-87
2021/12/21 21:35:24;;;;;;;25.70;16.42;;;;;;;;;;6197783;23;20035;-88
2021/12/21 21:37:50;;;;;;;19.23;12.60;;;;;;;;;;6197316;23;20064;-88
2021/12/21 21:40:16;;;;;;;26.63;16.75;;;;;;;;;;6222193;23;20017;-88
2021/12/21 21:42:42;;;;;;;18.58;11.60;;;;;;;;;;6215101;23;20013;-89
2021/12/21 21:45:09;;;;;;;21.08;14.32;;;;;;;;;;6186134;23;20328;-88
2021/12/21 21:47:35;;;;;;;28.88;20.27;;;;;;;;;;6187617;23;20005;-89
2021/12/21 21:50:02;;;;;;;24.85;14.65;;;;;;;;;;6187270;23;20004;-88
2021/12/21 21:52:28;;;;;;;16.08;9.95;;;;;;;;;;6213394;23;20012;-88
2021/12/21 21:54:54;;;;;;;13.75;9.48;;;;;;;;;;6213846;23;20001;-89
2021/12/21 21:57:19;;;;;;;13.20;9.43;;;;;;;;;;6211848;23;20068;-88
2021/12/21 21:59:45;;;;;;;16.67;9.90;;;;;;;;;;6210786;23;20483;-89
2021/12/21 22:02:10;;;;;;;15.35;10.35;;;;;;;;;;6210349;23;20423;-88
2021/12/21 22:04:36;;;;;;;21.13;13.65;;;;;;;;;;6185478;23;20009;-88
2021/12/21 22:07:04;;;;;;;21.48;13.05;;;;;;;;;;6210307;23;20011;-89
2021/12/21 22:09:30;;;;;;;19.77;12.65;;;;;;;;;;6210601;23;20029;-88
2021/12/21 22:11:56;;;;;;;22.20;12.80;;;;;;;;;;6210672;23;20009;-89
2021/12/21 22:14:22;;;;;;;18.40;10.75;;;;;;;;;;6210569;23;20037;-89
2021/12/21 22:16:49;;;;;;;21.17;12.18;;;;;;;;;;6210868;23;20009;-88
2021/12/21 22:19:14;;;;;;;20.85;12.13;;;;;;;;;;6185318;23;20025;-90
2021/12/21 22:21:40;;;;;;;19.80;11.45;;;;;;;;;;6210918;23;20005;-87
2021/12/21 22:24:06;;;;;;;13.05;9.27;;;;;;;;;;6211613;23;20063;-88
2021/12/21 22:26:31;;;;;;;14.18;9.40;;;;;;;;;;6212138;23;20048;-88
2021/12/21 22:28:57;;;;;;;16.13;10.00;;;;;;;;;;6210844;23;20005;-89
2021/12/21 22:31:27;;;;;;;14.93;10.23;;;;;;;;;;6210704;23;19997;-89
2021/12/21 22:33:54;;;;;;;18.98;10.85;;;;;;;;;;6185338;23;20001;-89
2021/12/21 22:36:20;;;;;;;15.02;10.35;;;;;;;;;;6210179;23;20455;-88
2021/12/21 22:38:47;;;;;;;20.92;13.32;;;;;;;;;;6187026;23;20001;-88
2021/12/21 22:41:16;;;;;;;23.63;13.25;;;;;;;;;;6185819;23;20017;-89
2021/12/21 22:43:42;;;;;;;19.23;12.50;;;;;;;;;;6210186;23;20009;-88
2021/12/21 22:46:08;;;;;;;19.40;12.82;;;;;;;;;;6186804;23;20001;-89
2021/12/21 22:48:34;;;;;;;18.25;11.85;;;;;;;;;;6185548;23;20009;-92
2021/12/21 22:51:00;;;;;;;19.42;12.25;;;;;;;;;;6210516;23;20009;-90
2021/12/21 22:53:26;;;;;;;18.40;10.82;;;;;;;;;;6211330;23;20009;-88
2021/12/21 22:55:51;;;;;;;15.02;10.70;;;;;;;;;;6210010;23;20012;-88
2021/12/21 22:58:17;;;;;;;16.70;10.82;;;;;;;;;;6184966;23;20084;-89
2021/12/21 23:01:04;;;;;;;18.20;10.73;;;;;;;;;;6186823;23;20327;-89
2021/12/21 23:03:33;;;;;;;16.30;10.70;;;;;;;;;;6186534;23;20009;-89
2021/12/21 23:05:58;;;;;;;15.00;9.68;;;;;;;;;;6186608;23;20005;-88
2021/12/21 23:08:24;;;;;;;13.80;10.10;;;;;;;;;;6210097;23;20031;-87
2021/12/21 23:10:50;;;;;;;20.88;11.32;;;;;;;;;;6210314;23;20075;-88
2021/12/21 23:13:16;;;;;;;19.33;12.10;;;;;;;;;;6186434;23;20008;-90
2021/12/21 23:15:42;;;;;;;18.27;11.93;;;;;;;;;;6210062;23;20425;-88
2021/12/21 23:18:09;;;;;;;17.33;11.27;;;;;;;;;;6212298;23;20013;-89
2021/12/21 23:20:36;;;;;;;17.77;10.30;;;;;;;;;;6213376;23;20008;-88
2021/12/21 23:23:03;;;;;;;13.90;10.27;;;;;;;;;;6189826;23;20008;-87
2021/12/21 23:25:30;;;;;;;17.63;11.10;;;;;;;;;;6188490;23;20012;-89
2021/12/21 23:27:56;;;;;;;14.15;9.57;;;;;;;;;;6189898;23;20111;-88
2021/12/21 23:30:22;;;;;;;17.35;10.52;;;;;;;;;;6213775;23;20439;-88
2021/12/21 23:32:48;;;;;;;16.98;10.50;;;;;;;;;;6213242;23;20088;-87
2021/12/21 23:35:14;;;;;;;15.10;9.65;;;;;;;;;;6213517;23;20033;-88
2021/12/21 23:37:40;;;;;;;15.02;10.10;;;;;;;;;;6213539;23;20004;-89
2021/12/21 23:40:08;;;;;;;18.13;10.75;;;;;;;;;;6213267;23;20013;-89
2021/12/21 23:42:34;;;;;;;14.73;9.05;;;;;;;;;;6188181;23;20071;-87
2021/12/21 23:44:59;;;;;;;14.10;9.10;;;;;;;;;;6189686;23;19997;-89
2021/12/21 23:47:25;;;;;;;14.38;9.05;;;;;;;;;;6213373;23;20001;-87
2021/12/21 23:49:51;;;;;;;16.63;10.18;;;;;;;;;;6213151;23;20313;-87
2021/12/21 23:52:18;;;;;;;15.30;9.38;;;;;;;;;;6213210;23;20062;-88
2021/12/21 23:54:45;;;;;;;13.75;9.45;;;;;;;;;;6213153;23;20031;-88
2021/12/21 23:57:11;;;;;;;13.15;9.63;;;;;;;;;;6188412;23;20012;-91
2021/12/21 23:59:36;;;;;;;13.32;9.13;;;;;;;;;;6213214;23;20395;-88
